UAL436 KEGE-KDEN
Flight info
| Callsign | UAL436 |
|---|---|
| Flight time | 0h 32m |
| Altitude | 23000 |
| Route | APRES2 BELGN LONGZ LONGZ4 |
| Aircraft | B753/M-SDE2E3FGHIJ3J4J7RWXY/LB1 |
Departure
| Time | 2026-05-09 04:28 |
|---|---|
| Airport | Eagle County Regional Airport (KEGE) |
Arrival
| Time | 2026-05-09 05:00 |
|---|---|
| Airport | Denver International Airport (KDEN) |
| Time | Latitude | Longitude | Altitude | Speed | Heading |
|---|---|---|---|---|---|
| 2026-05-09 04:12 | 39.64084 | -106.91372 | 6534 ft | 0 kts | 172° |
| 2026-05-09 04:21 | 39.64096 | -106.91375 | 6537 ft | 3 kts | 159° |
| 2026-05-09 04:21 | 39.64115 | -106.91389 | 6535 ft | 3 kts | 133° |
| 2026-05-09 04:21 | 39.64128 | -106.91429 | 6536 ft | 0 kts | 87° |
| 2026-05-09 04:23 | 39.64130 | -106.91399 | 6534 ft | 11 kts | 84° |
| 2026-05-09 04:23 | 39.64144 | -106.91275 | 6533 ft | 15 kts | 78° |
| 2026-05-09 04:24 | 39.64204 | -106.91198 | 6537 ft | 11 kts | 69° |
| 2026-05-09 04:24 | 39.64218 | -106.91102 | 6539 ft | 11 kts | 82° |
| 2026-05-09 04:24 | 39.64232 | -106.90996 | 6541 ft | 13 kts | 81° |
| 2026-05-09 04:24 | 39.64244 | -106.90877 | 6545 ft | 13 kts | 83° |
| 2026-05-09 04:25 | 39.64258 | -106.90735 | 6547 ft | 19 kts | 82° |
| 2026-05-09 04:25 | 39.64287 | -106.90530 | 6548 ft | 26 kts | 81° |
| 2026-05-09 04:25 | 39.64307 | -106.90332 | 6554 ft | 17 kts | 85° |
| 2026-05-09 04:25 | 39.64322 | -106.90170 | 6557 ft | 19 kts | 82° |
| 2026-05-09 04:26 | 39.64338 | -106.90037 | 6558 ft | 9 kts | 72° |
| 2026-05-09 04:26 | 39.64406 | -106.90024 | 6558 ft | 12 kts | 340° |
| 2026-05-09 04:26 | 39.64438 | -106.90121 | 6557 ft | 15 kts | 262° |
| 2026-05-09 04:26 | 39.64430 | -106.90190 | 6556 ft | 0 kts | 261° |
| 2026-05-09 04:27 | 39.64424 | -106.90238 | 6556 ft | 29 kts | 262° |
| 2026-05-09 04:27 | 39.64356 | -106.90855 | 6544 ft | 106 kts | 261° |
| 2026-05-09 04:27 | 39.64218 | -106.92081 | 6502 ft | 167 kts | 261° |
| 2026-05-09 04:27 | 39.64026 | -106.93722 | 6773 ft | 192 kts | 256° |
| 2026-05-09 04:28 | 39.63442 | -106.95287 | 7485 ft | 196 kts | 232° |
| 2026-05-09 04:28 | 39.62653 | -106.96668 | 8452 ft | 185 kts | 234° |
| 2026-05-09 04:28 | 39.61946 | -106.98036 | 9235 ft | 187 kts | 237° |
| 2026-05-09 04:28 | 39.61145 | -106.99536 | 9480 ft | 218 kts | 234° |
| 2026-05-09 04:29 | 39.60368 | -107.01305 | 9960 ft | 231 kts | 253° |
| 2026-05-09 04:29 | 39.60288 | -107.03454 | 10139 ft | 253 kts | 284° |
| 2026-05-09 04:29 | 39.61106 | -107.05560 | 10339 ft | 275 kts | 312° |
| 2026-05-09 04:29 | 39.62702 | -107.07068 | 10540 ft | 297 kts | 338° |
| 2026-05-09 04:30 | 39.64789 | -107.07648 | 10760 ft | 319 kts | 353° |
| 2026-05-09 04:30 | 39.67070 | -107.08024 | 10961 ft | 340 kts | 352° |
| 2026-05-09 04:30 | 39.69450 | -107.08480 | 11455 ft | 349 kts | 351° |
| 2026-05-09 04:30 | 39.71872 | -107.08893 | 12115 ft | 353 kts | 358° |
| 2026-05-09 04:31 | 39.74308 | -107.08449 | 12745 ft | 357 kts | 19° |
| 2026-05-09 04:31 | 39.76489 | -107.06901 | 13351 ft | 362 kts | 39° |
| 2026-05-09 04:31 | 39.78138 | -107.04429 | 13963 ft | 365 kts | 60° |
| 2026-05-09 04:31 | 39.79289 | -107.01476 | 14580 ft | 368 kts | 64° |
| 2026-05-09 04:32 | 39.80366 | -106.98493 | 15192 ft | 371 kts | 65° |
| 2026-05-09 04:32 | 39.81463 | -106.95434 | 15655 ft | 374 kts | 65° |
| 2026-05-09 04:32 | 39.82579 | -106.92358 | 15786 ft | 377 kts | 64° |
| 2026-05-09 04:32 | 39.83708 | -106.89280 | 15796 ft | 375 kts | 64° |
| 2026-05-09 04:33 | 39.84814 | -106.86285 | 15795 ft | 359 kts | 64° |
| 2026-05-09 04:33 | 39.85869 | -106.83431 | 15794 ft | 342 kts | 64° |
| 2026-05-09 04:33 | 39.86877 | -106.80705 | 15793 ft | 326 kts | 64° |
| 2026-05-09 04:33 | 39.87850 | -106.78072 | 15797 ft | 324 kts | 64° |
| 2026-05-09 04:34 | 39.88836 | -106.75402 | 15795 ft | 328 kts | 64° |
| 2026-05-09 04:34 | 39.89821 | -106.72735 | 15796 ft | 325 kts | 64° |
| 2026-05-09 04:34 | 39.90800 | -106.70082 | 15796 ft | 325 kts | 64° |
| 2026-05-09 04:34 | 39.91779 | -106.67422 | 15796 ft | 326 kts | 64° |
| 2026-05-09 04:35 | 39.92761 | -106.64753 | 15797 ft | 327 kts | 64° |
| 2026-05-09 04:35 | 39.93742 | -106.62080 | 15794 ft | 327 kts | 64° |
| 2026-05-09 04:35 | 39.94723 | -106.59405 | 15795 ft | 327 kts | 64° |
| 2026-05-09 04:35 | 39.95703 | -106.56731 | 15795 ft | 326 kts | 64° |
| 2026-05-09 04:36 | 39.96679 | -106.54064 | 15797 ft | 326 kts | 64° |
| 2026-05-09 04:36 | 39.97654 | -106.51399 | 15796 ft | 326 kts | 64° |
| 2026-05-09 04:36 | 39.98631 | -106.48727 | 15797 ft | 326 kts | 64° |
| 2026-05-09 04:36 | 39.99609 | -106.46048 | 15796 ft | 328 kts | 64° |
| 2026-05-09 04:37 | 40.00759 | -106.43482 | 15797 ft | 328 kts | 54° |
| 2026-05-09 04:37 | 40.02173 | -106.41156 | 15844 ft | 327 kts | 50° |
| 2026-05-09 04:37 | 40.03604 | -106.38864 | 15889 ft | 326 kts | 51° |
| 2026-05-09 04:37 | 40.05032 | -106.36557 | 15946 ft | 326 kts | 51° |
| 2026-05-09 04:38 | 40.06443 | -106.34269 | 15949 ft | 327 kts | 51° |
| 2026-05-09 04:38 | 40.07889 | -106.31923 | 15949 ft | 327 kts | 51° |
| 2026-05-09 04:38 | 40.09314 | -106.29610 | 15949 ft | 327 kts | 51° |
| 2026-05-09 04:38 | 40.10738 | -106.27298 | 15949 ft | 327 kts | 51° |
| 2026-05-09 04:39 | 40.12164 | -106.24980 | 15949 ft | 328 kts | 51° |
| 2026-05-09 04:39 | 40.13463 | -106.22532 | 15949 ft | 329 kts | 60° |
| 2026-05-09 04:39 | 40.14560 | -106.19903 | 15949 ft | 329 kts | 61° |
| 2026-05-09 04:39 | 40.15660 | -106.17280 | 15949 ft | 329 kts | 61° |
| 2026-05-09 04:40 | 40.16752 | -106.14689 | 15949 ft | 330 kts | 61° |
| 2026-05-09 04:40 | 40.17861 | -106.12058 | 15948 ft | 331 kts | 61° |
| 2026-05-09 04:40 | 40.18969 | -106.09427 | 15949 ft | 330 kts | 61° |
| 2026-05-09 04:40 | 40.20073 | -106.06801 | 15948 ft | 329 kts | 61° |
| 2026-05-09 04:41 | 40.21174 | -106.04180 | 15949 ft | 328 kts | 61° |
| 2026-05-09 04:41 | 40.22287 | -106.01527 | 15949 ft | 329 kts | 61° |
| 2026-05-09 04:41 | 40.23383 | -105.98911 | 15949 ft | 330 kts | 61° |
| 2026-05-09 04:41 | 40.24485 | -105.96281 | 15949 ft | 330 kts | 61° |
| 2026-05-09 04:42 | 40.25587 | -105.93648 | 15948 ft | 330 kts | 61° |
| 2026-05-09 04:42 | 40.26689 | -105.91011 | 15949 ft | 330 kts | 61° |
| 2026-05-09 04:42 | 40.27789 | -105.88376 | 15949 ft | 329 kts | 61° |
| 2026-05-09 04:42 | 40.28887 | -105.85746 | 15949 ft | 328 kts | 61° |
| 2026-05-09 04:43 | 40.29981 | -105.83121 | 15949 ft | 329 kts | 61° |
| 2026-05-09 04:43 | 40.31079 | -105.80485 | 15950 ft | 330 kts | 61° |
| 2026-05-09 04:43 | 40.32179 | -105.77843 | 15949 ft | 330 kts | 61° |
| 2026-05-09 04:43 | 40.33278 | -105.75201 | 15949 ft | 331 kts | 61° |
| 2026-05-09 04:44 | 40.34379 | -105.72550 | 15949 ft | 332 kts | 61° |
| 2026-05-09 04:44 | 40.35484 | -105.69889 | 15950 ft | 332 kts | 61° |
| 2026-05-09 04:44 | 40.36569 | -105.67275 | 15949 ft | 329 kts | 61° |
| 2026-05-09 04:44 | 40.37638 | -105.64620 | 15945 ft | 330 kts | 67° |
| 2026-05-09 04:45 | 40.38226 | -105.61726 | 15950 ft | 329 kts | 85° |
| 2026-05-09 04:45 | 40.38103 | -105.58744 | 15951 ft | 329 kts | 102° |
| 2026-05-09 04:45 | 40.37622 | -105.55804 | 15948 ft | 329 kts | 102° |
| 2026-05-09 04:45 | 40.37145 | -105.52879 | 15949 ft | 327 kts | 102° |
| 2026-05-09 04:46 | 40.36674 | -105.49960 | 15949 ft | 327 kts | 102° |
| 2026-05-09 04:46 | 40.36204 | -105.47038 | 15949 ft | 329 kts | 102° |
| 2026-05-09 04:46 | 40.35732 | -105.44107 | 15948 ft | 329 kts | 102° |
| 2026-05-09 04:46 | 40.35259 | -105.41176 | 15949 ft | 329 kts | 102° |
| 2026-05-09 04:47 | 40.34785 | -105.38242 | 15949 ft | 329 kts | 102° |
| 2026-05-09 04:47 | 40.34317 | -105.35315 | 15949 ft | 327 kts | 101° |
| 2026-05-09 04:47 | 40.33904 | -105.32377 | 15815 ft | 328 kts | 100° |
| 2026-05-09 04:47 | 40.33522 | -105.29439 | 15569 ft | 325 kts | 99° |
| 2026-05-09 04:48 | 40.33145 | -105.26529 | 15343 ft | 323 kts | 99° |
| 2026-05-09 04:48 | 40.32764 | -105.23634 | 15113 ft | 321 kts | 100° |
| 2026-05-09 04:48 | 40.32379 | -105.20758 | 14888 ft | 320 kts | 100° |
| 2026-05-09 04:48 | 40.31992 | -105.17895 | 14664 ft | 318 kts | 100° |
| 2026-05-09 04:49 | 40.31604 | -105.15050 | 14439 ft | 317 kts | 100° |
| 2026-05-09 04:49 | 40.31216 | -105.12207 | 14213 ft | 316 kts | 100° |
| 2026-05-09 04:49 | 40.30960 | -105.10332 | 14061 ft | 315 kts | 100° |
| 2026-05-09 04:49 | 40.30573 | -105.07507 | 13838 ft | 314 kts | 100° |
| 2026-05-09 04:50 | 40.30187 | -105.04700 | 13614 ft | 313 kts | 100° |
| 2026-05-09 04:50 | 40.29803 | -105.01901 | 13388 ft | 312 kts | 100° |
| 2026-05-09 04:50 | 40.29418 | -104.99111 | 13176 ft | 310 kts | 100° |
| 2026-05-09 04:50 | 40.29036 | -104.96339 | 12999 ft | 308 kts | 100° |
| 2026-05-09 04:51 | 40.28660 | -104.93616 | 12874 ft | 296 kts | 100° |
| 2026-05-09 04:51 | 40.28305 | -104.91038 | 12723 ft | 280 kts | 100° |
| 2026-05-09 04:51 | 40.27967 | -104.88581 | 12395 ft | 270 kts | 100° |
| 2026-05-09 04:51 | 40.27638 | -104.86196 | 12016 ft | 261 kts | 100° |
| 2026-05-09 04:52 | 40.27319 | -104.83888 | 11639 ft | 255 kts | 100° |
| 2026-05-09 04:52 | 40.27002 | -104.81599 | 11275 ft | 257 kts | 100° |
| 2026-05-09 04:52 | 40.26684 | -104.79305 | 10994 ft | 253 kts | 100° |
| 2026-05-09 04:52 | 40.26334 | -104.77067 | 10948 ft | 252 kts | 107° |
| 2026-05-09 04:53 | 40.25686 | -104.74925 | 10951 ft | 254 kts | 116° |
| 2026-05-09 04:53 | 40.24932 | -104.72834 | 10948 ft | 254 kts | 115° |
| 2026-05-09 04:53 | 40.23991 | -104.70907 | 10823 ft | 251 kts | 136° |
| 2026-05-09 04:53 | 40.22570 | -104.69614 | 10488 ft | 250 kts | 152° |
| 2026-05-09 04:54 | 40.21009 | -104.68627 | 10111 ft | 248 kts | 163° |
| 2026-05-09 04:54 | 40.19325 | -104.68306 | 9964 ft | 246 kts | 182° |
| 2026-05-09 04:54 | 40.17597 | -104.68353 | 9950 ft | 248 kts | 181° |
| 2026-05-09 04:54 | 40.15889 | -104.68383 | 9949 ft | 248 kts | 181° |
| 2026-05-09 04:55 | 40.14139 | -104.68403 | 9949 ft | 248 kts | 181° |
| 2026-05-09 04:55 | 40.12406 | -104.68424 | 9785 ft | 250 kts | 181° |
| 2026-05-09 04:55 | 40.10688 | -104.68443 | 9439 ft | 250 kts | 181° |
| 2026-05-09 04:55 | 40.08960 | -104.68463 | 9086 ft | 247 kts | 181° |
| 2026-05-09 04:56 | 40.07249 | -104.68482 | 8757 ft | 244 kts | 181° |
| 2026-05-09 04:56 | 40.05580 | -104.68501 | 8427 ft | 235 kts | 181° |
| 2026-05-09 04:56 | 40.03972 | -104.68519 | 8118 ft | 227 kts | 181° |
| 2026-05-09 04:56 | 40.02427 | -104.68537 | 7864 ft | 218 kts | 181° |
| 2026-05-09 04:57 | 40.00935 | -104.68554 | 7551 ft | 211 kts | 181° |
| 2026-05-09 04:57 | 39.99495 | -104.68570 | 7280 ft | 202 kts | 181° |
| 2026-05-09 04:57 | 39.98123 | -104.68586 | 7023 ft | 190 kts | 181° |
| 2026-05-09 04:57 | 39.96859 | -104.68600 | 6762 ft | 172 kts | 181° |
| 2026-05-09 04:58 | 39.95721 | -104.68613 | 6539 ft | 156 kts | 181° |
| 2026-05-09 04:58 | 39.94658 | -104.68625 | 6344 ft | 153 kts | 181° |
| 2026-05-09 04:58 | 39.93590 | -104.68638 | 6140 ft | 153 kts | 181° |
| 2026-05-09 04:58 | 39.92531 | -104.68649 | 5939 ft | 152 kts | 181° |
| 2026-05-09 04:59 | 39.91475 | -104.68661 | 5735 ft | 152 kts | 181° |
| 2026-05-09 04:59 | 39.90421 | -104.68673 | 5541 ft | 151 kts | 181° |
| 2026-05-09 04:59 | 39.89372 | -104.68687 | 5379 ft | 150 kts | 180° |
| 2026-05-09 04:59 | 39.88438 | -104.68697 | 5363 ft | 109 kts | 181° |
| 2026-05-09 05:00 | 39.87881 | -104.68691 | 5371 ft | 57 kts | 168° |
| 2026-05-09 05:00 | 39.87584 | -104.68519 | 5366 ft | 27 kts | 142° |
| 2026-05-09 05:00 | 39.87468 | -104.68504 | 5368 ft | 17 kts | 184° |
| 2026-05-09 05:00 | 39.87344 | -104.68494 | 5366 ft | 19 kts | 182° |
| 2026-05-09 05:01 | 39.87209 | -104.68497 | 5366 ft | 20 kts | 180° |
| 2026-05-09 05:01 | 39.87056 | -104.68500 | 5365 ft | 25 kts | 178° |
| 2026-05-09 05:01 | 39.86858 | -104.68502 | 5367 ft | 30 kts | 182° |
| 2026-05-09 05:01 | 39.86643 | -104.68502 | 5372 ft | 32 kts | 181° |
| 2026-05-09 05:02 | 39.86419 | -104.68506 | 5372 ft | 33 kts | 182° |
| 2026-05-09 05:02 | 39.86187 | -104.68506 | 5370 ft | 29 kts | 179° |
| 2026-05-09 05:02 | 39.86141 | -104.68420 | 5372 ft | 13 kts | 105° |
| 2026-05-09 05:02 | 39.86140 | -104.68290 | 5373 ft | 13 kts | 89° |
| 2026-05-09 05:03 | 39.86138 | -104.68185 | 5393 ft | 14 kts | 91° |
| 2026-05-09 05:03 | 39.86072 | -104.68044 | 5391 ft | 24 kts | 98° |
| 2026-05-09 05:03 | 39.86069 | -104.67778 | 5393 ft | 34 kts | 90° |
| 2026-05-09 05:03 | 39.86066 | -104.67437 | 5393 ft | 41 kts | 91° |
| 2026-05-09 05:04 | 39.86053 | -104.67177 | 5393 ft | 21 kts | 121° |
| 2026-05-09 05:04 | 39.85988 | -104.67135 | 5393 ft | 2 kts | 183° |
| 2026-05-09 05:04 | 39.85943 | -104.67136 | 5389 ft | 0 kts | 177° |
| 2026-05-09 05:04 | 39.85936 | -104.67136 | 5390 ft | 0 kts | 179° |
| 2026-05-09 05:05 | 39.85930 | -104.67136 | 5390 ft | 2 kts | 179° |
| 2026-05-09 05:05 | 39.85928 | -104.67136 | 5390 ft | 0 kts | 179° |
| 2026-05-09 05:05 | 39.85927 | -104.67136 | 5390 ft | 0 kts | 179° |
| 2026-05-09 05:05 | 39.85925 | -104.67136 | 5390 ft | 0 kts | 179° |
| 2026-05-09 05:06 | 39.85939 | -104.67136 | 5389 ft | 0 kts | 179° |